Time;durP1;ratioP1;P1;durP2;ratioP2;P2;SDS_P1;SDS_P2;PMS_P1;PMS_P2;Temp;Humidity;BMP_temperature;BMP_pressure;BME280_temperature;BME280_humidity;BME280_pressure;Samples;Min_cycle;Max_cycle;Signal;HPM_P1;HPM_P2
2023/06/11 00:01:23;;;;;;;50.35;35.70;;;17.20;99.90;;;;;;5053230;28;20082;-72
2023/06/11 00:03:52;;;;;;;51.30;33.92;;;17.20;99.90;;;;;;5054113;28;20382;-71
2023/06/11 00:06:22;;;;;;;49.20;34.65;;;17.10;99.90;;;;;;5053068;28;20025;-72
2023/06/11 00:08:53;;;;;;;42.63;32.10;;;17.10;99.90;;;;;;5052765;28;20040;-71
2023/06/11 00:11:19;;;;;;;40.63;32.25;;;17.10;99.90;;;;;;5053235;28;20025;-71
2023/06/11 00:13:45;;;;;;;46.33;33.00;;;17.10;99.90;;;;;;5054050;28;20025;-71
2023/06/11 00:16:13;;;;;;;46.15;34.45;;;17.10;99.90;;;;;;5053607;28;20043;-71
2023/06/11 00:18:42;;;;;;;41.33;31.80;;;17.10;99.90;;;;;;5053385;28;20071;-71
2023/06/11 00:21:09;;;;;;;46.15;31.70;;;17.10;99.90;;;;;;5054033;28;20021;-71
2023/06/11 00:23:36;;;;;;;43.17;31.73;;;17.20;99.90;;;;;;5053237;28;20029;-71
2023/06/11 00:26:05;;;;;;;49.15;35.38;;;17.20;99.90;;;;;;5053359;28;20057;-71
2023/06/11 00:28:31;;;;;;;43.25;32.65;;;17.20;99.90;;;;;;5052851;28;20467;-71
2023/06/11 00:30:57;;;;;;;50.13;35.03;;;17.20;99.90;;;;;;5053689;28;20540;-71
2023/06/11 00:33:22;;;;;;;50.38;36.35;;;17.10;99.90;;;;;;5053049;28;20036;-71
2023/06/11 00:35:48;;;;;;;47.05;33.63;;;17.10;99.90;;;;;;5053649;28;20028;-71
2023/06/11 00:38:15;;;;;;;49.33;33.53;;;17.00;99.90;;;;;;5053357;28;20041;-71
2023/06/11 00:40:41;;;;;;;47.53;33.80;;;17.00;99.90;;;;;;5052931;28;20112;-72
2023/06/11 00:43:07;;;;;;;50.22;34.78;;;17.00;99.90;;;;;;5053446;28;20076;-71
2023/06/11 00:45:35;;;;;;;52.80;34.50;;;17.00;99.90;;;;;;5052769;28;20029;-71
2023/06/11 00:48:01;;;;;;;48.00;33.47;;;16.90;99.90;;;;;;5053323;28;20029;-71
2023/06/11 00:50:28;;;;;;;45.50;34.10;;;16.90;99.90;;;;;;5052909;28;20044;-71
2023/06/11 00:52:54;;;;;;;52.00;36.10;;;16.90;99.90;;;;;;5053297;28;20029;-71
2023/06/11 00:55:21;;;;;;;54.35;36.97;;;16.90;99.90;;;;;;5051748;28;20067;-74
2023/06/11 00:57:48;;;;;;;45.40;32.22;;;16.80;99.90;;;;;;5052976;28;20032;-71
2023/06/11 01:00:14;;;;;;;46.90;33.33;;;16.80;99.90;;;;;;5053485;28;20025;-71
2023/06/11 01:02:44;;;;;;;49.03;36.15;;;16.80;99.90;;;;;;5052420;28;20032;-71
2023/06/11 01:05:11;;;;;;;52.95;37.10;;;16.80;99.90;;;;;;5053521;28;20028;-71
2023/06/11 01:07:50;;;;;;;47.28;34.75;;;16.80;99.90;;;;;;5053027;28;20737;-71
2023/06/11 01:10:18;;;;;;;52.08;35.53;;;16.80;99.90;;;;;;5053486;28;20068;-71
2023/06/11 01:12:44;;;;;;;62.55;40.40;;;16.70;99.90;;;;;;5052504;28;20425;-71
2023/06/11 01:15:13;;;;;;;48.85;35.58;;;16.70;99.90;;;;;;5052821;28;20025;-71
2023/06/11 01:17:52;;;;;;;54.17;36.40;;;16.70;99.90;;;;;;5051787;28;20152;-71
2023/06/11 01:20:35;;;;;;;59.15;39.58;;;16.70;99.90;;;;;;5052660;28;20036;-71
2023/06/11 01:23:16;;;;;;;49.00;34.33;;;16.60;99.90;;;;;;5052433;28;20057;-71
2023/06/11 01:25:59;;;;;;;50.80;35.88;;;16.60;99.90;;;;;;5051403;28;20046;-71
2023/06/11 01:28:31;;;;;;;47.90;34.30;;;16.70;99.90;;;;;;5051706;28;20037;-72
2023/06/11 01:30:58;;;;;;;52.07;36.53;;;16.60;99.90;;;;;;5052698;28;20036;-71
2023/06/11 01:33:27;;;;;;;63.88;37.67;;;16.60;99.90;;;;;;5051960;28;20021;-72
2023/06/11 01:35:57;;;;;;;55.65;37.30;;;16.70;99.90;;;;;;5052338;28;20025;-71
2023/06/11 01:38:25;;;;;;;53.75;37.22;;;16.60;99.90;;;;;;5051982;28;20040;-73
2023/06/11 01:40:52;;;;;;;50.10;35.75;;;16.60;99.90;;;;;;5052330;28;20021;-71
2023/06/11 01:43:18;;;;;;;51.53;35.53;;;16.50;99.90;;;;;;5052138;28;20017;-72
2023/06/11 01:45:43;;;;;;;60.58;38.42;;;16.50;99.90;;;;;;5051642;28;20516;-71
2023/06/11 01:48:09;;;;;;;60.72;42.55;;;16.50;99.90;;;;;;5051932;28;20331;-70
2023/06/11 01:50:35;;;;;;;60.95;41.42;;;16.40;99.90;;;;;;5050856;28;20031;-71
2023/06/11 01:53:01;;;;;;;57.05;40.15;;;16.40;99.90;;;;;;5051849;28;20489;-71
2023/06/11 01:55:27;;;;;;;59.45;38.88;;;16.40;99.90;;;;;;5051011;28;20045;-71
2023/06/11 01:57:53;;;;;;;49.15;35.97;;;16.40;99.90;;;;;;5052027;28;20060;-71
2023/06/11 02:00:19;;;;;;;54.65;36.03;;;16.40;99.90;;;;;;5051586;28;20418;-70
2023/06/11 02:02:48;;;;;;;58.20;38.47;;;16.40;99.90;;;;;;5051124;28;20454;-71
2023/06/11 02:05:13;;;;;;;52.42;36.40;;;16.40;99.90;;;;;;5051593;28;20033;-71
2023/06/11 02:07:39;;;;;;;59.55;39.70;;;16.40;99.90;;;;;;5050900;28;20094;-71
2023/06/11 02:10:05;;;;;;;57.42;37.22;;;16.40;99.90;;;;;;5052080;28;20363;-71
2023/06/11 02:12:31;;;;;;;50.20;37.10;;;16.40;99.90;;;;;;5050945;28;20471;-71
2023/06/11 02:14:57;;;;;;;57.08;40.45;;;16.40;99.90;;;;;;5051554;28;20032;-71
2023/06/11 02:17:22;;;;;;;54.97;37.38;;;16.40;99.90;;;;;;5051261;28;20446;-73
2023/06/11 02:19:49;;;;;;;54.50;37.88;;;16.40;99.90;;;;;;5050619;28;20459;-70
2023/06/11 02:22:15;;;;;;;54.90;38.05;;;16.40;99.90;;;;;;5051423;28;20351;-71
2023/06/11 02:24:40;;;;;;;50.63;36.40;;;16.40;99.90;;;;;;5049198;28;20032;-71
2023/06/11 02:27:06;;;;;;;53.03;38.53;;;16.40;99.90;;;;;;5051153;28;20175;-71
2023/06/11 02:29:32;;;;;;;66.60;43.47;;;16.40;99.90;;;;;;5050415;28;20461;-72
2023/06/11 02:31:58;;;;;;;57.25;37.90;;;16.40;99.90;;;;;;5051049;28;20032;-71
2023/06/11 02:34:24;;;;;;;58.20;41.72;;;16.40;99.90;;;;;;5051109;28;20025;-73
2023/06/11 02:36:50;;;;;;;50.83;37.97;;;16.30;99.90;;;;;;5049430;28;20031;-71
2023/06/11 02:39:16;;;;;;;60.60;39.30;;;16.30;99.90;;;;;;5051344;28;20078;-71
2023/06/11 02:41:42;;;;;;;57.55;38.15;;;16.30;99.90;;;;;;5050476;28;20029;-71
2023/06/11 02:44:07;;;;;;;57.78;39.67;;;16.30;99.90;;;;;;5050815;28;20501;-71
2023/06/11 02:46:33;;;;;;;57.85;40.03;;;16.30;99.90;;;;;;5050733;28;20104;-71
2023/06/11 02:48:59;;;;;;;61.58;40.42;;;16.30;99.90;;;;;;5050342;28;20339;-71
2023/06/11 02:51:25;;;;;;;65.15;43.92;;;16.20;99.90;;;;;;5050592;28;20025;-73
2023/06/11 02:53:50;;;;;;;66.40;41.92;;;16.30;99.90;;;;;;5050576;28;20021;-71
2023/06/11 02:56:16;;;;;;;62.00;39.65;;;16.20;99.90;;;;;;5050657;28;20036;-71
2023/06/11 02:58:42;;;;;;;65.65;41.33;;;16.10;99.90;;;;;;5050208;28;20119;-71
2023/06/11 03:01:07;;;;;;;60.83;42.58;;;16.10;99.90;;;;;;5050138;28;20029;-71
2023/06/11 03:03:33;;;;;;;59.28;40.45;;;16.10;99.90;;;;;;5049860;28;20385;-71
2023/06/11 03:05:59;;;;;;;72.30;45.75;;;16.10;99.90;;;;;;5050614;28;20063;-71
2023/06/11 03:08:24;;;;;;;71.13;46.00;;;16.10;99.90;;;;;;5050577;28;20445;-71
2023/06/11 03:10:50;;;;;;;59.67;44.10;;;16.10;99.90;;;;;;5049947;28;20115;-71
2023/06/11 03:13:16;;;;;;;62.97;41.63;;;16.10;99.90;;;;;;5050209;28;20017;-72
2023/06/11 03:15:41;;;;;;;66.72;43.10;;;16.10;99.90;;;;;;5049345;28;20433;-71
2023/06/11 03:18:07;;;;;;;58.13;40.97;;;16.20;99.90;;;;;;5049752;28;20048;-71
2023/06/11 03:20:33;;;;;;;66.35;42.90;;;16.20;99.90;;;;;;5049511;28;20381;-71
2023/06/11 03:22:58;;;;;;;62.45;42.92;;;16.20;99.90;;;;;;5049824;28;20104;-71
2023/06/11 03:25:24;;;;;;;68.22;44.25;;;16.20;99.90;;;;;;5050052;28;20101;-71
2023/06/11 03:27:50;;;;;;;68.85;45.72;;;16.20;99.90;;;;;;5049388;28;20049;-71
2023/06/11 03:30:15;;;;;;;62.97;45.03;;;16.20;99.90;;;;;;5049683;28;20385;-71
2023/06/11 03:32:41;;;;;;;62.80;42.97;;;16.20;99.90;;;;;;5049622;28;20461;-71
2023/06/11 03:35:07;;;;;;;74.13;46.00;;;16.10;99.90;;;;;;5050328;28;20025;-71
2023/06/11 03:37:33;;;;;;;61.60;43.22;;;16.10;99.90;;;;;;5049092;28;20421;-72
2023/06/11 03:39:58;;;;;;;59.42;42.03;;;16.10;99.90;;;;;;5049937;28;20512;-71
2023/06/11 03:42:24;;;;;;;61.88;43.03;;;16.10;99.90;;;;;;5049843;28;20021;-71
2023/06/11 03:44:50;;;;;;;73.07;47.85;;;16.10;99.90;;;;;;5049243;28;20078;-71
2023/06/11 03:47:15;;;;;;;63.47;44.53;;;16.10;99.90;;;;;;5050071;28;20128;-71
2023/06/11 03:49:41;;;;;;;66.75;45.47;;;16.10;99.90;;;;;;5049269;28;20107;-71
2023/06/11 03:52:07;;;;;;;74.43;47.13;;;16.10;99.90;;;;;;5049919;28;20113;-71
2023/06/11 03:54:33;;;;;;;60.67;42.05;;;16.10;99.90;;;;;;5049241;28;20025;-72
2023/06/11 03:56:59;;;;;;;69.90;46.25;;;16.10;99.90;;;;;;5048351;28;20066;-71
2023/06/11 03:59:25;;;;;;;74.82;46.13;;;16.10;99.90;;;;;;5049570;28;20354;-71
2023/06/11 04:01:51;;;;;;;73.97;47.28;;;16.10;99.90;;;;;;5049368;28;20025;-71
2023/06/11 04:04:16;;;;;;;70.93;44.80;;;16.20;99.90;;;;;;5049629;28;20029;-71
2023/06/11 04:06:43;;;;;;;59.30;40.63;;;16.20;99.90;;;;;;5049328;28;20064;-71
2023/06/11 04:09:08;;;;;;;68.47;44.20;;;16.20;99.90;;;;;;5048676;28;20117;-71
2023/06/11 04:11:34;;;;;;;63.47;44.33;;;16.30;99.90;;;;;;5048835;28;20021;-71
2023/06/11 04:14:00;;;;;;;61.40;39.60;;;16.20;99.90;;;;;;5049674;28;20115;-71
2023/06/11 04:16:26;;;;;;;66.72;45.92;;;16.20;99.90;;;;;;5049237;28;20040;-71
2023/06/11 04:18:52;;;;;;;72.78;45.63;;;16.20;99.90;;;;;;5048655;28;20033;-71
2023/06/11 04:21:18;;;;;;;65.53;43.45;;;16.20;99.90;;;;;;5049220;28;20432;-71
2023/06/11 04:23:44;;;;;;;68.22;42.80;;;16.20;99.90;;;;;;5048902;28;20116;-71
2023/06/11 04:26:10;;;;;;;63.08;43.50;;;16.20;99.90;;;;;;5049323;28;20429;-71
2023/06/11 04:28:40;;;;;;;65.15;41.70;;;16.20;99.90;;;;;;5048391;28;20037;-71
2023/06/11 04:31:07;;;;;;;65.03;40.67;;;16.20;99.90;;;;;;5052086;28;20048;-71
2023/06/11 04:33:33;;;;;;;68.07;46.30;;;16.20;99.90;;;;;;5052690;28;20025;-74
2023/06/11 04:36:04;;;;;;;72.57;44.63;;;16.20;99.90;;;;;;5053140;28;20040;-71
2023/06/11 04:38:30;;;;;;;65.95;43.92;;;16.20;99.90;;;;;;5052920;28;20395;-71
2023/06/11 04:40:57;;;;;;;62.05;41.58;;;16.30;99.90;;;;;;5052480;28;20025;-71
2023/06/11 04:43:23;;;;;;;64.20;42.75;;;16.20;99.90;;;;;;5053132;28;20120;-71
2023/06/11 04:45:53;;;;;;;66.80;42.17;;;16.30;99.90;;;;;;5052381;28;20494;-71
2023/06/11 04:48:21;;;;;;;67.13;42.50;;;16.30;99.90;;;;;;5052943;28;20072;-71
2023/06/11 04:50:48;;;;;;;66.97;45.05;;;16.30;99.90;;;;;;5052210;28;20171;-72
2023/06/11 04:53:21;;;;;;;65.50;41.67;;;16.30;99.90;;;;;;5052969;28;20047;-71
2023/06/11 04:55:51;;;;;;;51.83;36.53;;;16.30;99.90;;;;;;5052370;28;20386;-71
2023/06/11 04:58:24;;;;;;;59.72;40.67;;;16.40;99.90;;;;;;5052646;28;20106;-71
2023/06/11 05:00:51;;;;;;;64.75;42.92;;;16.40;99.90;;;;;;5052205;28;20063;-71
2023/06/11 05:03:17;;;;;;;70.45;46.30;;;16.40;99.90;;;;;;5052357;28;20316;-72
2023/06/11 05:05:49;;;;;;;66.68;43.88;;;16.40;99.90;;;;;;5051987;28;20025;-71
2023/06/11 05:08:16;;;;;;;61.50;39.22;;;16.40;99.90;;;;;;5052804;28;20112;-71
2023/06/11 05:10:42;;;;;;;57.75;38.88;;;16.40;99.90;;;;;;5052109;28;20041;-72
2023/06/11 05:13:08;;;;;;;51.58;38.38;;;16.40;99.90;;;;;;5052650;28;20082;-71
2023/06/11 05:15:34;;;;;;;72.30;45.58;;;16.50;99.90;;;;;;5051971;28;20426;-72
2023/06/11 05:18:00;;;;;;;59.60;40.30;;;16.50;99.90;;;;;;5052315;28;20033;-71
2023/06/11 05:20:26;;;;;;;51.83;37.95;;;16.50;99.90;;;;;;5052704;28;20060;-71
2023/06/11 05:22:59;;;;;;;60.67;43.03;;;16.50;99.90;;;;;;5052109;28;20481;-71
2023/06/11 05:25:29;;;;;;;56.80;40.17;;;16.50;99.90;;;;;;5052339;28;20025;-71
2023/06/11 05:28:01;;;;;;;65.68;43.67;;;16.60;99.90;;;;;;5051089;28;20806;-71
2023/06/11 05:30:29;;;;;;;;;;;16.60;99.90;;;;;;5050907;28;20417;-71
2023/06/11 05:32:56;;;;;;;57.63;39.30;;;16.60;99.90;;;;;;5051648;28;20032;-71
2023/06/11 05:35:25;;;;;;;56.30;40.33;;;16.60;99.90;;;;;;5050585;28;20390;-72
2023/06/11 05:37:52;;;;;;;59.25;40.70;;;16.60;99.90;;;;;;5051125;28;20474;-71
2023/06/11 05:40:18;;;;;;;62.67;40.45;;;16.70;99.90;;;;;;5050736;28;20336;-72
2023/06/11 05:42:44;;;;;;;64.78;42.90;;;16.60;99.90;;;;;;5050920;28;20068;-72
2023/06/11 05:45:10;;;;;;;58.42;40.60;;;16.70;99.90;;;;;;5051992;28;20052;-72
2023/06/11 05:47:36;;;;;;;61.28;40.95;;;16.80;99.90;;;;;;5052187;28;20461;-72
2023/06/11 05:50:02;;;;;;;53.00;36.10;;;16.90;99.90;;;;;;5051437;28;20029;-72
2023/06/11 05:52:27;;;;;;;52.85;37.78;;;16.90;99.90;;;;;;5052044;28;20176;-71
2023/06/11 05:54:53;;;;;;;60.28;39.60;;;17.00;99.90;;;;;;5051004;28;20032;-71
2023/06/11 05:57:24;;;;;;;55.95;35.97;;;17.10;99.90;;;;;;5050258;28;20040;-72
2023/06/11 05:59:51;;;;;;;57.13;38.08;;;17.10;99.90;;;;;;5050614;28;20112;-71
2023/06/11 06:02:17;;;;;;;49.95;35.22;;;17.20;99.90;;;;;;5051410;28;20120;-71
2023/06/11 06:04:46;;;;;;;51.22;36.95;;;17.30;99.90;;;;;;5050952;28;20029;-72
2023/06/11 06:07:12;;;;;;;47.83;33.85;;;17.40;99.90;;;;;;5051206;28;20167;-71
2023/06/11 06:09:37;;;;;;;47.40;33.97;;;17.50;99.90;;;;;;5051321;28;20052;-73
2023/06/11 06:12:03;;;;;;;47.42;35.05;;;17.60;99.90;;;;;;5050738;28;20031;-71
2023/06/11 06:14:29;;;;;;;53.58;35.47;;;17.60;99.90;;;;;;5051371;28;20021;-71
2023/06/11 06:16:55;;;;;;;51.17;36.75;;;17.70;99.90;;;;;;5050052;28;20025;-72
2023/06/11 06:19:20;;;;;;;41.88;32.67;;;17.70;99.90;;;;;;5051404;28;20021;-71
2023/06/11 06:21:46;;;;;;;53.25;36.67;;;17.80;99.90;;;;;;5050223;28;20149;-72
2023/06/11 06:24:12;;;;;;;48.13;34.22;;;17.80;99.90;;;;;;5051500;28;20052;-72
2023/06/11 06:26:40;;;;;;;46.47;33.22;;;17.90;99.90;;;;;;5051140;28;20045;-71
2023/06/11 06:29:12;;;;;;;43.97;31.85;;;17.90;99.90;;;;;;5051443;28;20044;-71
2023/06/11 06:31:40;;;;;;;40.35;30.80;;;18.00;99.90;;;;;;5051319;28;20029;-71
2023/06/11 06:34:06;;;;;;;41.65;31.65;;;18.00;99.90;;;;;;5051603;28;20142;-72
2023/06/11 06:36:32;;;;;;;43.28;32.78;;;18.00;99.90;;;;;;5051194;28;20127;-72
2023/06/11 06:38:58;;;;;;;47.90;33.65;;;18.10;99.90;;;;;;5050580;28;20481;-72
2023/06/11 06:41:23;;;;;;;45.70;31.85;;;18.10;99.90;;;;;;5051052;28;20169;-72
2023/06/11 06:43:49;;;;;;;41.00;29.67;;;18.10;99.90;;;;;;5050216;28;20033;-72
2023/06/11 06:46:15;;;;;;;43.75;30.92;;;18.20;99.90;;;;;;5050933;28;20442;-72
2023/06/11 06:48:41;;;;;;;44.22;30.10;;;18.20;99.90;;;;;;5050448;28;20037;-74
2023/06/11 06:51:07;;;;;;;44.65;32.42;;;18.30;99.90;;;;;;5050546;28;20029;-71
2023/06/11 06:53:33;;;;;;;40.58;30.15;;;18.30;99.90;;;;;;5050121;28;20029;-72
2023/06/11 06:56:00;;;;;;;42.83;31.33;;;18.40;99.90;;;;;;5050122;28;20036;-72
2023/06/11 06:58:27;;;;;;;46.55;33.47;;;18.50;99.90;;;;;;5050544;28;20033;-72
2023/06/11 07:00:53;;;;;;;42.65;30.63;;;18.60;99.90;;;;;;5050080;28;20061;-72
2023/06/11 07:03:19;;;;;;;47.47;30.17;;;18.60;99.90;;;;;;5050473;28;20022;-72
2023/06/11 07:05:45;;;;;;;40.42;29.60;;;18.60;99.90;;;;;;5050017;28;20079;-72
2023/06/11 07:08:14;;;;;;;40.53;28.25;;;18.70;99.90;;;;;;5050356;28;20033;-71
2023/06/11 07:10:49;;;;;;;35.85;27.63;;;18.80;99.90;;;;;;5050441;28;20477;-71
2023/06/11 07:13:15;;;;;;;41.25;28.08;;;18.90;99.90;;;;;;5048942;28;20195;-72
2023/06/11 07:15:41;;;;;;;35.28;25.45;;;19.00;99.90;;;;;;5050436;28;20124;-73
2023/06/11 07:18:08;;;;;;;33.90;25.60;;;19.10;99.90;;;;;;5049793;28;20473;-72
2023/06/11 07:20:34;;;;;;;34.40;24.92;;;19.20;99.90;;;;;;5050406;28;20033;-71
2023/06/11 07:23:00;;;;;;;27.85;22.70;;;19.30;99.90;;;;;;5049844;28;20047;-72
2023/06/11 07:25:30;;;;;;;36.10;26.45;;;19.30;99.90;;;;;;5050397;28;20017;-72
2023/06/11 07:27:58;;;;;;;33.83;25.73;;;19.40;99.90;;;;;;5049785;28;20053;-72
2023/06/11 07:30:24;;;;;;;27.25;22.13;;;19.40;99.90;;;;;;5050143;28;20037;-72
2023/06/11 07:32:52;;;;;;;31.63;22.63;;;19.50;99.90;;;;;;5049523;28;20094;-72
2023/06/11 07:35:20;;;;;;;25.33;20.55;;;19.50;99.90;;;;;;5050068;28;20090;-72
2023/06/11 07:37:46;;;;;;;24.83;19.38;;;19.50;99.90;;;;;;5049543;28;20033;-74
2023/06/11 07:40:12;;;;;;;26.35;20.85;;;19.60;99.90;;;;;;5048299;28;20103;-72
2023/06/11 07:42:38;;;;;;;32.78;24.60;;;19.70;99.90;;;;;;5050291;28;20482;-71
2023/06/11 07:45:06;;;;;;;32.45;22.83;;;19.90;99.90;;;;;;5049554;28;20033;-72
2023/06/11 07:47:32;;;;;;;27.98;21.95;;;20.10;99.90;;;;;;5050204;28;20039;-72
2023/06/11 07:49:58;;;;;;;27.25;19.95;;;20.30;99.90;;;;;;5049375;28;20108;-72
2023/06/11 07:52:23;;;;;;;27.88;20.73;;;20.30;99.90;;;;;;5049781;28;20157;-72
2023/06/11 07:54:49;;;;;;;25.35;18.80;;;20.40;99.90;;;;;;5049239;28;20032;-72
2023/06/11 07:57:15;;;;;;;24.45;18.25;;;20.30;99.90;;;;;;5049664;28;20060;-73
2023/06/11 07:59:43;;;;;;;22.98;17.63;;;20.20;99.90;;;;;;5049853;28;20056;-72
2023/06/11 08:02:09;;;;;;;30.08;20.88;;;20.30;99.90;;;;;;5048912;28;20036;-72
2023/06/11 08:04:35;;;;;;;28.73;20.50;;;20.30;99.90;;;;;;5050306;28;20051;-72
2023/06/11 08:07:02;;;;;;;27.67;20.08;;;20.40;99.90;;;;;;5053644;28;20381;-72
2023/06/11 08:09:28;;;;;;;28.27;20.23;;;20.30;99.90;;;;;;5052647;28;20095;-72
2023/06/11 08:11:54;;;;;;;25.40;17.92;;;20.40;99.90;;;;;;5052735;28;20033;-72
2023/06/11 08:14:20;;;;;;;20.17;15.73;;;20.50;99.90;;;;;;5053220;28;20040;-71
2023/06/11 08:16:46;;;;;;;23.10;17.48;;;20.70;99.90;;;;;;5053907;28;20025;-74
2023/06/11 08:19:13;;;;;;;22.05;16.33;;;20.80;99.90;;;;;;5052816;28;20093;-72
2023/06/11 08:21:38;;;;;;;23.02;16.38;;;20.90;99.90;;;;;;5053036;28;20021;-71
2023/06/11 08:24:05;;;;;;;17.60;14.60;;;20.90;99.90;;;;;;5052929;28;20128;-72
2023/06/11 08:26:31;;;;;;;17.42;13.82;;;20.80;99.90;;;;;;5053116;28;20451;-72
2023/06/11 08:28:56;;;;;;;15.20;11.85;;;20.80;99.90;;;;;;5052786;28;20025;-72
2023/06/11 08:31:24;;;;;;;10.13;8.95;;;20.90;99.90;;;;;;5053521;28;20056;-72
2023/06/11 08:33:50;;;;;;;12.40;8.65;;;20.90;99.90;;;;;;5052710;28;20029;-72
2023/06/11 08:36:16;;;;;;;9.30;7.15;;;20.90;99.90;;;;;;5052951;28;20476;-71
2023/06/11 08:38:42;;;;;;;15.52;10.80;;;21.10;99.90;;;;;;5053228;28;20098;-72
2023/06/11 08:41:08;;;;;;;13.77;10.18;;;21.10;99.90;;;;;;5052642;28;20138;-72
2023/06/11 08:43:34;;;;;;;12.68;9.10;;;21.20;99.90;;;;;;5053064;28;20503;-72
2023/06/11 08:46:00;;;;;;;9.60;8.57;;;21.30;99.90;;;;;;5052534;28;20098;-72
2023/06/11 08:48:29;;;;;;;8.73;7.78;;;21.30;99.90;;;;;;5053013;28;20068;-71
2023/06/11 08:50:55;;;;;;;12.20;7.78;;;21.30;99.90;;;;;;5052169;28;20067;-72
2023/06/11 08:53:21;;;;;;;9.38;7.13;;;21.20;99.90;;;;;;5053040;28;20056;-72
2023/06/11 08:55:48;;;;;;;8.48;6.85;;;21.30;99.90;;;;;;5053025;28;20047;-71
2023/06/11 08:58:15;;;;;;;10.18;7.38;;;21.30;99.90;;;;;;5050443;28;20435;-72
2023/06/11 09:00:41;;;;;;;7.82;6.10;;;21.30;99.90;;;;;;5052867;28;20037;-72
2023/06/11 09:03:08;;;;;;;9.45;6.30;;;21.30;99.90;;;;;;5052019;28;20028;-72
2023/06/11 09:05:35;;;;;;;8.98;6.13;;;21.40;99.90;;;;;;5052175;28;20044;-72
2023/06/11 09:08:06;;;;;;;11.45;7.03;;;21.40;99.90;;;;;;5052383;28;20438;-72
2023/06/11 09:10:32;;;;;;;9.70;7.10;;;21.50;99.90;;;;;;5052349;28;20035;-70
2023/06/11 09:13:00;;;;;;;10.05;7.72;;;21.70;99.90;;;;;;5050558;28;20125;-70
2023/06/11 09:15:26;;;;;;;11.93;7.30;;;21.80;99.90;;;;;;5050980;28;20067;-71
2023/06/11 09:17:51;;;;;;;8.23;6.70;;;21.80;99.90;;;;;;5049871;28;20178;-74
2023/06/11 09:20:19;;;;;;;7.38;5.82;;;21.80;99.90;;;;;;5051119;28;20029;-72
2023/06/11 09:22:45;;;;;;;6.45;5.35;;;21.70;99.90;;;;;;5051401;28;20036;-72
2023/06/11 09:25:19;;;;;;;7.32;5.35;;;21.70;99.90;;;;;;5050552;28;20031;-70
2023/06/11 09:27:46;;;;;;;5.95;4.47;;;21.70;99.90;;;;;;5050404;28;20171;-72
2023/06/11 09:30:17;;;;;;;4.95;4.28;;;21.70;99.90;;;;;;5050843;28;20033;-72
2023/06/11 09:32:45;;;;;;;5.85;4.63;;;21.70;99.90;;;;;;5051745;28;20573;-72
2023/06/11 09:35:13;;;;;;;5.00;3.78;;;21.70;99.90;;;;;;5051004;28;20062;-72
2023/06/11 09:37:47;;;;;;;4.97;3.90;;;21.90;99.90;;;;;;5051627;28;20063;-72
2023/06/11 09:40:21;;;;;;;6.10;4.22;;;21.90;99.90;;;;;;5050803;28;20404;-72
2023/06/11 09:42:47;;;;;;;7.65;3.90;;;22.00;99.90;;;;;;5051604;28;20354;-72
2023/06/11 09:45:19;;;;;;;5.75;4.00;;;22.10;99.90;;;;;;5050881;28;21162;-72
2023/06/11 09:47:46;;;;;;;5.80;3.92;;;22.10;99.90;;;;;;5050950;28;20037;-72
2023/06/11 09:50:16;;;;;;;5.22;3.45;;;22.30;99.90;;;;;;5050569;28;20646;-71
2023/06/11 09:52:43;;;;;;;4.57;4.00;;;22.20;99.90;;;;;;5051001;28;20047;-72
2023/06/11 09:55:10;;;;;;;4.75;3.92;;;22.30;99.90;;;;;;5049371;28;20427;-72
2023/06/11 09:57:40;;;;;;;6.00;4.40;;;22.50;99.90;;;;;;5051719;28;20123;-72
2023/06/11 10:00:11;;;;;;;5.10;4.18;;;22.50;99.90;;;;;;5051131;28;20112;-72
2023/06/11 10:02:38;;;;;;;4.00;3.58;;;22.50;99.90;;;;;;5051589;28;20029;-72
2023/06/11 10:05:06;;;;;;;4.45;3.78;;;22.50;99.90;;;;;;5051147;28;20021;-72
2023/06/11 10:07:38;;;;;;;3.97;2.95;;;22.40;99.90;;;;;;5049740;28;20367;-72
2023/06/11 10:10:06;;;;;;;3.30;2.70;;;22.30;99.90;;;;;;5051103;28;20033;-72
2023/06/11 10:12:33;;;;;;;3.55;2.42;;;22.30;99.90;;;;;;5050537;28;20442;-72
2023/06/11 10:15:02;;;;;;;3.10;2.20;;;22.20;99.90;;;;;;5050193;28;20036;-72
2023/06/11 10:17:28;;;;;;;2.20;1.98;;;22.10;99.90;;;;;;5050587;28;20024;-72
2023/06/11 10:19:55;;;;;;;3.00;2.58;;;22.10;99.90;;;;;;5050121;28;20033;-74
2023/06/11 10:22:31;;;;;;;3.00;2.20;;;22.00;99.90;;;;;;5050487;28;20040;-72
2023/06/11 10:25:04;;;;;;;2.40;2.20;;;22.10;99.90;;;;;;5050112;28;20036;-72
2023/06/11 10:27:37;;;;;;;3.85;2.80;;;22.20;99.90;;;;;;5049795;28;20093;-72
2023/06/11 10:30:05;;;;;;;3.42;2.83;;;22.30;99.90;;;;;;5049764;28;20086;-72
2023/06/11 10:32:31;;;;;;;2.90;2.65;;;22.30;99.90;;;;;;5050395;28;20112;-72
2023/06/11 10:35:04;;;;;;;3.83;2.30;;;22.50;99.90;;;;;;5049567;28;20029;-73
2023/06/11 10:37:33;;;;;;;3.50;2.50;;;22.50;99.90;;;;;;5050182;28;20033;-72
2023/06/11 10:39:59;;;;;;;2.13;1.90;;;22.70;99.90;;;;;;5049678;28;20032;-72
2023/06/11 10:42:37;;;;;;;2.25;2.00;;;22.80;99.90;;;;;;5050050;28;20063;-72
2023/06/11 10:45:11;;;;;;;2.75;1.90;;;22.90;99.90;;;;;;5048896;28;20605;-72
2023/06/11 10:47:45;;;;;;;3.05;1.80;;;23.00;99.90;;;;;;5049862;28;20091;-72
2023/06/11 10:50:13;;;;;;;3.50;2.25;;;23.10;99.90;;;;;;5049234;28;20111;-73
2023/06/11 10:52:53;;;;;;;4.22;2.45;;;23.00;99.90;;;;;;5049599;28;20036;-72
2023/06/11 10:55:21;;;;;;;3.03;2.30;;;23.00;99.90;;;;;;5048677;28;20108;-71
2023/06/11 10:57:53;;;;;;;3.75;2.45;;;22.90;99.90;;;;;;5049513;28;20029;-71
2023/06/11 11:00:19;;;;;;;2.88;1.90;;;22.90;99.90;;;;;;5048622;28;20100;-71
2023/06/11 11:02:49;;;;;;;4.65;2.35;;;23.00;99.90;;;;;;5049188;28;20601;-71
2023/06/11 11:05:15;;;;;;;1.98;1.83;;;23.00;99.90;;;;;;5048560;28;20025;-72
2023/06/11 11:07:44;;;;;;;2.10;1.90;;;23.00;99.90;;;;;;5049571;28;20045;-71
2023/06/11 11:10:11;;;;;;;2.92;2.00;;;23.00;99.90;;;;;;5049239;28;20040;-71
2023/06/11 11:12:41;;;;;;;6.90;2.10;;;23.00;99.90;;;;;;5049561;28;20100;-71
2023/06/11 11:15:10;;;;;;;1.88;1.70;;;23.00;99.90;;;;;;5049046;28;20090;-71
2023/06/11 11:17:36;;;;;;;3.15;2.22;;;23.20;99.90;;;;;;5049660;28;20068;-71
2023/06/11 11:20:19;;;;;;;1.67;1.58;;;23.40;99.90;;;;;;5048659;28;20409;-71
2023/06/11 11:22:56;;;;;;;2.38;1.65;;;23.40;99.90;;;;;;5048719;28;20115;-71
2023/06/11 11:25:29;;;;;;;1.55;1.45;;;23.40;99.90;;;;;;5048502;28;20158;-71
2023/06/11 11:27:56;;;;;;;2.00;1.77;;;23.40;99.90;;;;;;5046647;28;20060;-74
2023/06/11 11:30:24;;;;;;;1.92;1.60;;;23.40;99.90;;;;;;5048444;28;20017;-71
2023/06/11 11:32:52;;;;;;;3.53;1.30;;;23.40;99.90;;;;;;5046915;28;20029;-71
2023/06/11 11:35:18;;;;;;;1.02;0.85;;;23.40;99.90;;;;;;5048286;28;20171;-71
2023/06/11 11:37:50;;;;;;;2.22;0.90;;;23.50;99.90;;;;;;5047048;28;20122;-71
2023/06/11 11:40:20;;;;;;;3.03;2.58;;;23.60;99.90;;;;;;5047312;28;20040;-71
2023/06/11 11:42:57;;;;;;;2.40;2.20;;;23.50;99.90;;;;;;5049037;28;20029;-71
2023/06/11 11:45:33;;;;;;;5.28;4.00;;;23.40;99.90;;;;;;5048254;28;20036;-71
2023/06/11 11:48:00;;;;;;;9.00;5.85;;;23.20;99.90;;;;;;5047970;28;20131;-71
2023/06/11 11:50:30;;;;;;;8.27;6.80;;;23.20;99.90;;;;;;5048939;28;20025;-71
2023/06/11 11:53:05;;;;;;;8.00;6.90;;;23.00;99.90;;;;;;5047001;28;20025;-74
2023/06/11 11:55:38;;;;;;;9.35;6.43;;;22.90;99.90;;;;;;5048652;28;20032;-71
2023/06/11 11:58:06;;;;;;;10.43;7.53;;;22.80;99.90;;;;;;5047946;28;20045;-71
2023/06/11 12:00:32;;;;;;;8.63;6.63;;;22.80;99.90;;;;;;5048511;28;20040;-71
2023/06/11 12:02:59;;;;;;;9.30;6.88;;;22.80;99.90;;;;;;5048100;28;20416;-74
2023/06/11 12:05:29;;;;;;;11.65;7.30;;;22.60;99.90;;;;;;5047693;28;20338;-71
2023/06/11 12:07:55;;;;;;;8.35;6.53;;;22.60;99.90;;;;;;5048669;28;20203;-71
2023/06/11 12:10:21;;;;;;;6.53;5.82;;;22.60;99.90;;;;;;5048092;28;20505;-71
2023/06/11 12:12:47;;;;;;;10.75;6.07;;;22.50;99.90;;;;;;5048171;28;20029;-71
2023/06/11 12:15:13;;;;;;;6.63;5.57;;;22.50;99.90;;;;;;5047677;28;20028;-72
2023/06/11 12:17:43;;;;;;;7.07;5.78;;;22.60;99.90;;;;;;5048574;28;20111;-71
2023/06/11 12:20:09;;;;;;;8.35;5.57;;;22.60;99.90;;;;;;5046442;28;20021;-71
2023/06/11 12:22:35;;;;;;;6.30;5.47;;;22.70;99.90;;;;;;5048641;28;20029;-72
2023/06/11 12:25:00;;;;;;;6.03;4.70;;;22.80;99.90;;;;;;5049371;28;20379;-72
2023/06/11 12:27:26;;;;;;;4.72;4.22;;;22.70;99.90;;;;;;5048847;28;20045;-72
2023/06/11 12:29:53;;;;;;;5.75;4.43;;;22.80;99.90;;;;;;5049518;28;20109;-71
2023/06/11 12:32:22;;;;;;;6.07;4.70;;;22.90;99.90;;;;;;5049068;28;20162;-72
2023/06/11 12:34:49;;;;;;;7.95;5.60;;;22.90;99.90;;;;;;5049588;28;20124;-72